sensor_id;sensor_type;location;lat;lon;timestamp;P1;durP1;ratioP1;P2;durP2;ratioP2
60352;SDS011;46196;52.970;6.954;2023-04-03T00:00:28;3.92;;;2.20;;
60352;SDS011;46196;52.970;6.954;2023-04-03T00:02:55;3.80;;;2.30;;
60352;SDS011;46196;52.970;6.954;2023-04-03T00:05:20;6.18;;;2.63;;
60352;SDS011;46196;52.970;6.954;2023-04-03T00:07:46;6.15;;;2.40;;
60352;SDS011;46196;52.970;6.954;2023-04-03T00:10:12;4.82;;;2.47;;
60352;SDS011;46196;52.970;6.954;2023-04-03T00:12:38;2.90;;;2.20;;
60352;SDS011;46196;52.970;6.954;2023-04-03T00:15:05;3.13;;;2.10;;
60352;SDS011;46196;52.970;6.954;2023-04-03T00:17:31;6.18;;;2.50;;
60352;SDS011;46196;52.970;6.954;2023-04-03T00:19:56;3.35;;;2.10;;
60352;SDS011;46196;52.970;6.954;2023-04-03T00:22:22;6.85;;;2.65;;
60352;SDS011;46196;52.970;6.954;2023-04-03T00:24:48;3.53;;;2.10;;
60352;SDS011;46196;52.970;6.954;2023-04-03T00:27:14;6.25;;;2.80;;
60352;SDS011;46196;52.970;6.954;2023-04-03T00:29:40;6.22;;;2.55;;
60352;SDS011;46196;52.970;6.954;2023-04-03T00:32:06;5.15;;;2.50;;
60352;SDS011;46196;52.970;6.954;2023-04-03T00:34:32;3.83;;;2.40;;
60352;SDS011;46196;52.970;6.954;2023-04-03T00:36:58;4.93;;;2.33;;
60352;SDS011;46196;52.970;6.954;2023-04-03T00:39:24;5.20;;;2.15;;
60352;SDS011;46196;52.970;6.954;2023-04-03T00:41:49;8.05;;;2.85;;
60352;SDS011;46196;52.970;6.954;2023-04-03T00:44:23;7.05;;;2.55;;
60352;SDS011;46196;52.970;6.954;2023-04-03T00:47:08;6.00;;;2.25;;
60352;SDS011;46196;52.970;6.954;2023-04-03T00:49:38;8.15;;;2.67;;
60352;SDS011;46196;52.970;6.954;2023-04-03T00:52:05;4.55;;;2.60;;
60352;SDS011;46196;52.970;6.954;2023-04-03T00:54:34;5.03;;;2.42;;
60352;SDS011;46196;52.970;6.954;2023-04-03T00:57:02;4.75;;;2.13;;
60352;SDS011;46196;52.970;6.954;2023-04-03T00:59:38;4.75;;;2.40;;
60352;SDS011;46196;52.970;6.954;2023-04-03T01:02:09;3.95;;;2.30;;
60352;SDS011;46196;52.970;6.954;2023-04-03T01:07:12;8.60;;;2.30;;
60352;SDS011;46196;52.970;6.954;2023-04-03T01:09:46;9.50;;;2.50;;
60352;SDS011;46196;52.970;6.954;2023-04-03T01:12:16;7.25;;;2.35;;
60352;SDS011;46196;52.970;6.954;2023-04-03T01:14:48;4.50;;;2.30;;
60352;SDS011;46196;52.970;6.954;2023-04-03T01:17:49;5.93;;;2.50;;
60352;SDS011;46196;52.970;6.954;2023-04-03T01:22:48;3.50;;;2.22;;
60352;SDS011;46196;52.970;6.954;2023-04-03T01:25:19;5.85;;;2.67;;
60352;SDS011;46196;52.970;6.954;2023-04-03T01:27:45;4.82;;;2.60;;
60352;SDS011;46196;52.970;6.954;2023-04-03T01:30:11;6.13;;;2.25;;
60352;SDS011;46196;52.970;6.954;2023-04-03T01:32:39;5.55;;;2.67;;
60352;SDS011;46196;52.970;6.954;2023-04-03T01:35:06;3.35;;;2.30;;
60352;SDS011;46196;52.970;6.954;2023-04-03T01:37:33;6.95;;;2.55;;
60352;SDS011;46196;52.970;6.954;2023-04-03T01:39:59;4.22;;;2.50;;
60352;SDS011;46196;52.970;6.954;2023-04-03T01:42:25;4.90;;;2.47;;
60352;SDS011;46196;52.970;6.954;2023-04-03T01:44:51;5.97;;;2.65;;
60352;SDS011;46196;52.970;6.954;2023-04-03T01:47:16;5.13;;;2.17;;
60352;SDS011;46196;52.970;6.954;2023-04-03T01:49:42;5.32;;;2.38;;
60352;SDS011;46196;52.970;6.954;2023-04-03T01:52:08;6.32;;;2.80;;
60352;SDS011;46196;52.970;6.954;2023-04-03T01:54:34;6.15;;;2.67;;
60352;SDS011;46196;52.970;6.954;2023-04-03T01:57:00;5.35;;;2.72;;
60352;SDS011;46196;52.970;6.954;2023-04-03T01:59:25;5.80;;;2.85;;
60352;SDS011;46196;52.970;6.954;2023-04-03T02:01:51;10.20;;;3.08;;
60352;SDS011;46196;52.970;6.954;2023-04-03T02:04:17;5.88;;;3.00;;
60352;SDS011;46196;52.970;6.954;2023-04-03T02:06:43;7.47;;;2.90;;
60352;SDS011;46196;52.970;6.954;2023-04-03T02:09:09;7.60;;;3.42;;
60352;SDS011;46196;52.970;6.954;2023-04-03T02:11:34;10.88;;;3.15;;
60352;SDS011;46196;52.970;6.954;2023-04-03T02:14:00;6.03;;;2.72;;
60352;SDS011;46196;52.970;6.954;2023-04-03T02:16:26;6.07;;;3.22;;
60352;SDS011;46196;52.970;6.954;2023-04-03T02:18:53;8.93;;;2.80;;
60352;SDS011;46196;52.970;6.954;2023-04-03T02:21:19;6.60;;;3.20;;
60352;SDS011;46196;52.970;6.954;2023-04-03T02:23:45;6.82;;;3.38;;
60352;SDS011;46196;52.970;6.954;2023-04-03T02:26:12;5.82;;;2.80;;
60352;SDS011;46196;52.970;6.954;2023-04-03T02:28:39;8.38;;;2.83;;
60352;SDS011;46196;52.970;6.954;2023-04-03T02:31:06;6.00;;;3.00;;
60352;SDS011;46196;52.970;6.954;2023-04-03T02:33:33;5.78;;;3.17;;
60352;SDS011;46196;52.970;6.954;2023-04-03T02:36:01;5.47;;;3.22;;
60352;SDS011;46196;52.970;6.954;2023-04-03T02:38:28;8.43;;;3.95;;
60352;SDS011;46196;52.970;6.954;2023-04-03T02:40:59;5.50;;;2.60;;
60352;SDS011;46196;52.970;6.954;2023-04-03T02:43:25;6.53;;;2.80;;
60352;SDS011;46196;52.970;6.954;2023-04-03T02:45:50;8.60;;;3.28;;
60352;SDS011;46196;52.970;6.954;2023-04-03T02:48:17;10.18;;;3.92;;
60352;SDS011;46196;52.970;6.954;2023-04-03T02:50:43;5.85;;;2.88;;
60352;SDS011;46196;52.970;6.954;2023-04-03T02:53:08;5.88;;;3.17;;
60352;SDS011;46196;52.970;6.954;2023-04-03T02:55:34;9.07;;;3.20;;
60352;SDS011;46196;52.970;6.954;2023-04-03T02:58:00;8.77;;;3.35;;
60352;SDS011;46196;52.970;6.954;2023-04-03T03:00:26;7.03;;;3.10;;
60352;SDS011;46196;52.970;6.954;2023-04-03T03:02:51;6.60;;;3.00;;
60352;SDS011;46196;52.970;6.954;2023-04-03T03:05:17;7.88;;;2.90;;
60352;SDS011;46196;52.970;6.954;2023-04-03T03:07:43;6.95;;;3.05;;
60352;SDS011;46196;52.970;6.954;2023-04-03T03:10:09;6.13;;;3.22;;
60352;SDS011;46196;52.970;6.954;2023-04-03T03:12:35;5.85;;;3.05;;
60352;SDS011;46196;52.970;6.954;2023-04-03T03:15:00;7.10;;;4.03;;
60352;SDS011;46196;52.970;6.954;2023-04-03T03:17:26;7.57;;;3.25;;
60352;SDS011;46196;52.970;6.954;2023-04-03T03:19:52;7.57;;;3.45;;
60352;SDS011;46196;52.970;6.954;2023-04-03T03:22:19;11.93;;;3.70;;
60352;SDS011;46196;52.970;6.954;2023-04-03T03:24:45;6.03;;;3.67;;
60352;SDS011;46196;52.970;6.954;2023-04-03T03:27:11;10.65;;;3.83;;
60352;SDS011;46196;52.970;6.954;2023-04-03T03:29:37;9.48;;;3.25;;
60352;SDS011;46196;52.970;6.954;2023-04-03T03:32:03;10.45;;;3.35;;
60352;SDS011;46196;52.970;6.954;2023-04-03T03:34:29;7.00;;;3.40;;
60352;SDS011;46196;52.970;6.954;2023-04-03T03:36:55;8.35;;;3.90;;
60352;SDS011;46196;52.970;6.954;2023-04-03T03:39:21;7.22;;;3.45;;
60352;SDS011;46196;52.970;6.954;2023-04-03T03:41:47;6.20;;;3.40;;
60352;SDS011;46196;52.970;6.954;2023-04-03T03:44:14;14.30;;;3.75;;
60352;SDS011;46196;52.970;6.954;2023-04-03T03:46:40;7.95;;;3.40;;
60352;SDS011;46196;52.970;6.954;2023-04-03T03:49:06;8.75;;;3.60;;
60352;SDS011;46196;52.970;6.954;2023-04-03T03:51:31;9.32;;;3.72;;
60352;SDS011;46196;52.970;6.954;2023-04-03T03:53:57;8.43;;;4.13;;
60352;SDS011;46196;52.970;6.954;2023-04-03T03:56:23;10.23;;;3.55;;
60352;SDS011;46196;52.970;6.954;2023-04-03T03:58:49;7.15;;;4.07;;
60352;SDS011;46196;52.970;6.954;2023-04-03T04:01:15;7.80;;;3.83;;
60352;SDS011;46196;52.970;6.954;2023-04-03T04:03:41;10.30;;;4.22;;
60352;SDS011;46196;52.970;6.954;2023-04-03T04:06:07;11.23;;;4.43;;
60352;SDS011;46196;52.970;6.954;2023-04-03T04:08:33;8.43;;;3.92;;
60352;SDS011;46196;52.970;6.954;2023-04-03T04:10:59;10.60;;;4.07;;
60352;SDS011;46196;52.970;6.954;2023-04-03T04:13:25;10.20;;;3.80;;
60352;SDS011;46196;52.970;6.954;2023-04-03T04:15:50;11.73;;;4.45;;
60352;SDS011;46196;52.970;6.954;2023-04-03T04:18:16;5.80;;;3.95;;
60352;SDS011;46196;52.970;6.954;2023-04-03T04:20:44;10.20;;;3.70;;
60352;SDS011;46196;52.970;6.954;2023-04-03T04:23:10;11.73;;;4.63;;
60352;SDS011;46196;52.970;6.954;2023-04-03T04:25:36;5.22;;;3.85;;
60352;SDS011;46196;52.970;6.954;2023-04-03T04:28:02;6.18;;;4.15;;
60352;SDS011;46196;52.970;6.954;2023-04-03T04:30:28;7.70;;;4.25;;
60352;SDS011;46196;52.970;6.954;2023-04-03T04:32:54;10.65;;;4.32;;
60352;SDS011;46196;52.970;6.954;2023-04-03T04:35:20;14.75;;;5.35;;
60352;SDS011;46196;52.970;6.954;2023-04-03T04:37:45;6.22;;;4.00;;
60352;SDS011;46196;52.970;6.954;2023-04-03T04:40:11;10.70;;;4.20;;
60352;SDS011;46196;52.970;6.954;2023-04-03T04:42:37;9.23;;;4.05;;
60352;SDS011;46196;52.970;6.954;2023-04-03T04:45:03;8.57;;;4.47;;
60352;SDS011;46196;52.970;6.954;2023-04-03T04:47:29;9.32;;;4.88;;
60352;SDS011;46196;52.970;6.954;2023-04-03T04:49:55;9.52;;;3.90;;
60352;SDS011;46196;52.970;6.954;2023-04-03T04:52:21;10.73;;;5.22;;
60352;SDS011;46196;52.970;6.954;2023-04-03T04:54:47;11.80;;;4.93;;
60352;SDS011;46196;52.970;6.954;2023-04-03T04:57:12;10.05;;;4.65;;
60352;SDS011;46196;52.970;6.954;2023-04-03T04:59:38;6.15;;;3.85;;
60352;SDS011;46196;52.970;6.954;2023-04-03T05:02:04;6.80;;;3.67;;
60352;SDS011;46196;52.970;6.954;2023-04-03T05:04:30;10.02;;;4.55;;
60352;SDS011;46196;52.970;6.954;2023-04-03T05:06:55;11.63;;;4.38;;
60352;SDS011;46196;52.970;6.954;2023-04-03T05:09:22;8.77;;;5.15;;
60352;SDS011;46196;52.970;6.954;2023-04-03T05:11:47;9.63;;;4.70;;
60352;SDS011;46196;52.970;6.954;2023-04-03T05:14:13;9.05;;;4.38;;
60352;SDS011;46196;52.970;6.954;2023-04-03T05:16:39;13.70;;;4.53;;
60352;SDS011;46196;52.970;6.954;2023-04-03T05:19:05;11.85;;;5.03;;
60352;SDS011;46196;52.970;6.954;2023-04-03T05:21:31;12.88;;;5.32;;
60352;SDS011;46196;52.970;6.954;2023-04-03T05:24:00;8.88;;;5.15;;
60352;SDS011;46196;52.970;6.954;2023-04-03T05:26:28;11.77;;;4.90;;
60352;SDS011;46196;52.970;6.954;2023-04-03T05:28:55;11.00;;;5.30;;
60352;SDS011;46196;52.970;6.954;2023-04-03T05:31:21;15.18;;;5.32;;
60352;SDS011;46196;52.970;6.954;2023-04-03T05:33:47;10.55;;;5.38;;
60352;SDS011;46196;52.970;6.954;2023-04-03T05:36:13;13.80;;;6.10;;
60352;SDS011;46196;52.970;6.954;2023-04-03T05:38:39;12.00;;;5.57;;
60352;SDS011;46196;52.970;6.954;2023-04-03T05:41:05;10.88;;;5.20;;
60352;SDS011;46196;52.970;6.954;2023-04-03T05:43:31;9.60;;;4.60;;
60352;SDS011;46196;52.970;6.954;2023-04-03T05:45:57;11.27;;;4.93;;
60352;SDS011;46196;52.970;6.954;2023-04-03T05:48:23;10.30;;;5.22;;
60352;SDS011;46196;52.970;6.954;2023-04-03T05:50:49;9.93;;;5.93;;
60352;SDS011;46196;52.970;6.954;2023-04-03T05:53:16;11.10;;;5.65;;
60352;SDS011;46196;52.970;6.954;2023-04-03T05:55:47;10.27;;;4.95;;
60352;SDS011;46196;52.970;6.954;2023-04-03T05:58:13;10.55;;;5.00;;
60352;SDS011;46196;52.970;6.954;2023-04-03T06:00:39;11.75;;;5.65;;
60352;SDS011;46196;52.970;6.954;2023-04-03T06:03:05;9.00;;;5.65;;
60352;SDS011;46196;52.970;6.954;2023-04-03T06:05:31;11.23;;;5.70;;
60352;SDS011;46196;52.970;6.954;2023-04-03T06:07:57;10.10;;;4.90;;
60352;SDS011;46196;52.970;6.954;2023-04-03T06:10:23;10.57;;;5.63;;
60352;SDS011;46196;52.970;6.954;2023-04-03T06:12:49;10.70;;;5.47;;
60352;SDS011;46196;52.970;6.954;2023-04-03T06:15:15;8.00;;;5.22;;
60352;SDS011;46196;52.970;6.954;2023-04-03T06:17:42;7.90;;;5.40;;
60352;SDS011;46196;52.970;6.954;2023-04-03T06:20:08;11.32;;;5.95;;
60352;SDS011;46196;52.970;6.954;2023-04-03T06:22:34;11.95;;;5.78;;
60352;SDS011;46196;52.970;6.954;2023-04-03T06:25:00;11.73;;;6.07;;
60352;SDS011;46196;52.970;6.954;2023-04-03T06:27:26;9.50;;;5.60;;
60352;SDS011;46196;52.970;6.954;2023-04-03T06:29:52;15.35;;;5.22;;
60352;SDS011;46196;52.970;6.954;2023-04-03T06:32:18;9.73;;;5.38;;
60352;SDS011;46196;52.970;6.954;2023-04-03T06:34:43;11.43;;;5.10;;
60352;SDS011;46196;52.970;6.954;2023-04-03T06:37:17;8.20;;;4.45;;
60352;SDS011;46196;52.970;6.954;2023-04-03T06:39:45;11.77;;;5.43;;
60352;SDS011;46196;52.970;6.954;2023-04-03T06:42:11;9.25;;;5.13;;
60352;SDS011;46196;52.970;6.954;2023-04-03T06:44:37;9.93;;;4.88;;
60352;SDS011;46196;52.970;6.954;2023-04-03T06:47:03;10.90;;;5.28;;
60352;SDS011;46196;52.970;6.954;2023-04-03T06:49:29;6.95;;;4.53;;
60352;SDS011;46196;52.970;6.954;2023-04-03T06:51:54;9.85;;;4.38;;
60352;SDS011;46196;52.970;6.954;2023-04-03T06:54:21;9.65;;;4.65;;
60352;SDS011;46196;52.970;6.954;2023-04-03T06:56:47;8.05;;;4.18;;
60352;SDS011;46196;52.970;6.954;2023-04-03T06:59:14;9.15;;;4.38;;
60352;SDS011;46196;52.970;6.954;2023-04-03T07:01:40;9.90;;;4.35;;
60352;SDS011;46196;52.970;6.954;2023-04-03T07:04:07;11.77;;;5.05;;
60352;SDS011;46196;52.970;6.954;2023-04-03T07:06:33;6.10;;;3.72;;
60352;SDS011;46196;52.970;6.954;2023-04-03T07:09:00;14.38;;;4.07;;
60352;SDS011;46196;52.970;6.954;2023-04-03T07:11:26;5.97;;;3.55;;
60352;SDS011;46196;52.970;6.954;2023-04-03T07:13:53;7.43;;;4.32;;
60352;SDS011;46196;52.970;6.954;2023-04-03T07:16:19;8.68;;;4.03;;
60352;SDS011;46196;52.970;6.954;2023-04-03T07:18:46;8.65;;;3.92;;
60352;SDS011;46196;52.970;6.954;2023-04-03T07:21:12;6.70;;;3.78;;
60352;SDS011;46196;52.970;6.954;2023-04-03T07:23:38;5.93;;;3.35;;
60352;SDS011;46196;52.970;6.954;2023-04-03T07:26:04;5.88;;;3.03;;
60352;SDS011;46196;52.970;6.954;2023-04-03T07:28:30;6.95;;;3.50;;
60352;SDS011;46196;52.970;6.954;2023-04-03T07:31:04;8.77;;;3.90;;
60352;SDS011;46196;52.970;6.954;2023-04-03T07:33:36;5.82;;;3.05;;
60352;SDS011;46196;52.970;6.954;2023-04-03T07:36:03;7.25;;;3.35;;
60352;SDS011;46196;52.970;6.954;2023-04-03T07:38:30;6.30;;;3.22;;
60352;SDS011;46196;52.970;6.954;2023-04-03T07:40:56;6.95;;;3.72;;
60352;SDS011;46196;52.970;6.954;2023-04-03T07:43:22;8.75;;;3.10;;
60352;SDS011;46196;52.970;6.954;2023-04-03T07:45:49;5.07;;;3.00;;
60352;SDS011;46196;52.970;6.954;2023-04-03T07:48:17;6.68;;;2.90;;
60352;SDS011;46196;52.970;6.954;2023-04-03T07:50:44;6.00;;;2.88;;
60352;SDS011;46196;52.970;6.954;2023-04-03T07:53:10;8.55;;;3.50;;
60352;SDS011;46196;52.970;6.954;2023-04-03T07:55:36;13.45;;;2.70;;
60352;SDS011;46196;52.970;6.954;2023-04-03T07:58:08;5.75;;;2.85;;
60352;SDS011;46196;52.970;6.954;2023-04-03T08:00:40;4.25;;;2.40;;
60352;SDS011;46196;52.970;6.954;2023-04-03T08:03:06;4.78;;;2.45;;
60352;SDS011;46196;52.970;6.954;2023-04-03T08:05:36;6.80;;;2.67;;
60352;SDS011;46196;52.970;6.954;2023-04-03T08:08:09;4.57;;;2.60;;
60352;SDS011;46196;52.970;6.954;2023-04-03T08:10:37;5.70;;;2.80;;
60352;SDS011;46196;52.970;6.954;2023-04-03T08:13:03;5.03;;;2.60;;
60352;SDS011;46196;52.970;6.954;2023-04-03T08:15:29;4.25;;;2.35;;
60352;SDS011;46196;52.970;6.954;2023-04-03T08:17:56;3.92;;;2.30;;
60352;SDS011;46196;52.970;6.954;2023-04-03T08:20:23;5.60;;;2.47;;
60352;SDS011;46196;52.970;6.954;2023-04-03T08:22:49;6.13;;;2.40;;
60352;SDS011;46196;52.970;6.954;2023-04-03T08:25:15;4.57;;;2.47;;
60352;SDS011;46196;52.970;6.954;2023-04-03T08:27:42;5.85;;;2.45;;
60352;SDS011;46196;52.970;6.954;2023-04-03T08:30:09;4.15;;;2.75;;
60352;SDS011;46196;52.970;6.954;2023-04-03T08:32:36;7.50;;;2.50;;
60352;SDS011;46196;52.970;6.954;2023-04-03T08:35:02;5.05;;;2.63;;
60352;SDS011;46196;52.970;6.954;2023-04-03T08:37:29;5.32;;;2.40;;
60352;SDS011;46196;52.970;6.954;2023-04-03T08:39:55;5.60;;;2.70;;
60352;SDS011;46196;52.970;6.954;2023-04-03T08:48:04;3.90;;;2.28;;
60352;SDS011;46196;52.970;6.954;2023-04-03T08:50:39;3.95;;;2.45;;
60352;SDS011;46196;52.970;6.954;2023-04-03T08:53:20;5.38;;;2.40;;
60352;SDS011;46196;52.970;6.954;2023-04-03T08:55:50;3.60;;;2.40;;
60352;SDS011;46196;52.970;6.954;2023-04-03T08:58:19;5.10;;;2.28;;
60352;SDS011;46196;52.970;6.954;2023-04-03T09:00:47;4.38;;;2.40;;
60352;SDS011;46196;52.970;6.954;2023-04-03T09:03:15;3.90;;;2.17;;
60352;SDS011;46196;52.970;6.954;2023-04-03T09:24:45;5.00;;;2.20;;
60352;SDS011;46196;52.970;6.954;2023-04-03T09:27:12;4.65;;;2.33;;
60352;SDS011;46196;52.970;6.954;2023-04-03T09:29:39;3.70;;;1.98;;
60352;SDS011;46196;52.970;6.954;2023-04-03T09:32:18;3.80;;;2.03;;
60352;SDS011;46196;52.970;6.954;2023-04-03T09:34:45;5.28;;;2.10;;
60352;SDS011;46196;52.970;6.954;2023-04-03T09:37:12;3.80;;;2.00;;
60352;SDS011;46196;52.970;6.954;2023-04-03T09:39:58;4.55;;;2.25;;
60352;SDS011;46196;52.970;6.954;2023-04-03T09:42:24;4.78;;;2.33;;
60352;SDS011;46196;52.970;6.954;2023-04-03T09:44:58;4.00;;;2.38;;
60352;SDS011;46196;52.970;6.954;2023-04-03T09:47:34;2.78;;;1.92;;
60352;SDS011;46196;52.970;6.954;2023-04-03T09:52:43;4.43;;;2.17;;
60352;SDS011;46196;52.970;6.954;2023-04-03T09:55:14;6.68;;;2.17;;
60352;SDS011;46196;52.970;6.954;2023-04-03T09:57:40;4.95;;;2.22;;
60352;SDS011;46196;52.970;6.954;2023-04-03T10:00:19;4.50;;;2.00;;
60352;SDS011;46196;52.970;6.954;2023-04-03T10:02:46;3.40;;;2.10;;
60352;SDS011;46196;52.970;6.954;2023-04-03T10:05:48;2.97;;;1.90;;
60352;SDS011;46196;52.970;6.954;2023-04-03T10:10:34;6.20;;;2.38;;
60352;SDS011;46196;52.970;6.954;2023-04-03T10:13:17;3.95;;;2.20;;
60352;SDS011;46196;52.970;6.954;2023-04-03T10:15:48;3.95;;;2.00;;
60352;SDS011;46196;52.970;6.954;2023-04-03T10:20:51;3.10;;;2.05;;
60352;SDS011;46196;52.970;6.954;2023-04-03T10:23:18;4.82;;;2.30;;
60352;SDS011;46196;52.970;6.954;2023-04-03T10:33:46;4.70;;;2.10;;
60352;SDS011;46196;52.970;6.954;2023-04-03T10:44:52;4.82;;;2.03;;
60352;SDS011;46196;52.970;6.954;2023-04-03T10:56:03;4.75;;;2.28;;
60352;SDS011;46196;52.970;6.954;2023-04-03T10:58:38;3.57;;;2.10;;
60352;SDS011;46196;52.970;6.954;2023-04-03T11:01:18;5.28;;;2.00;;
60352;SDS011;46196;52.970;6.954;2023-04-03T11:03:52;4.07;;;2.10;;
60352;SDS011;46196;52.970;6.954;2023-04-03T11:06:22;4.78;;;2.05;;
60352;SDS011;46196;52.970;6.954;2023-04-03T11:08:56;5.68;;;2.15;;
60352;SDS011;46196;52.970;6.954;2023-04-03T11:11:33;3.88;;;2.20;;
60352;SDS011;46196;52.970;6.954;2023-04-03T11:14:43;5.18;;;1.92;;
60352;SDS011;46196;52.970;6.954;2023-04-03T11:16:59;3.00;;;1.95;;
60352;SDS011;46196;52.970;6.954;2023-04-03T11:19:34;4.30;;;2.00;;
60352;SDS011;46196;52.970;6.954;2023-04-03T11:22:16;4.15;;;2.10;;
60352;SDS011;46196;52.970;6.954;2023-04-03T11:25:05;4.38;;;1.90;;
60352;SDS011;46196;52.970;6.954;2023-04-03T11:27:44;5.72;;;2.20;;
60352;SDS011;46196;52.970;6.954;2023-04-03T11:30:23;3.92;;;2.10;;
60352;SDS011;46196;52.970;6.954;2023-04-03T11:35:47;4.35;;;2.60;;
60352;SDS011;46196;52.970;6.954;2023-04-03T11:38:24;7.35;;;2.47;;
60352;SDS011;46196;52.970;6.954;2023-04-03T11:40:54;5.70;;;2.85;;
60352;SDS011;46196;52.970;6.954;2023-04-03T11:43:23;4.95;;;2.30;;
60352;SDS011;46196;52.970;6.954;2023-04-03T11:46:04;6.38;;;2.22;;
60352;SDS011;46196;52.970;6.954;2023-04-03T11:53:38;3.78;;;2.20;;
60352;SDS011;46196;52.970;6.954;2023-04-03T12:04:22;5.45;;;2.60;;
60352;SDS011;46196;52.970;6.954;2023-04-03T12:06:50;4.35;;;2.80;;
60352;SDS011;46196;52.970;6.954;2023-04-03T12:11:56;5.63;;;2.70;;
60352;SDS011;46196;52.970;6.954;2023-04-03T12:14:24;4.07;;;2.33;;
60352;SDS011;46196;52.970;6.954;2023-04-03T12:16:51;6.95;;;2.13;;
60352;SDS011;46196;52.970;6.954;2023-04-03T12:19:37;4.28;;;2.58;;
60352;SDS011;46196;52.970;6.954;2023-04-03T12:22:18;5.75;;;2.17;;
60352;SDS011;46196;52.970;6.954;2023-04-03T12:24:50;5.38;;;2.60;;
60352;SDS011;46196;52.970;6.954;2023-04-03T12:27:38;4.60;;;2.40;;
60352;SDS011;46196;52.970;6.954;2023-04-03T12:30:14;4.53;;;2.55;;
60352;SDS011;46196;52.970;6.954;2023-04-03T12:33:36;3.78;;;2.40;;
60352;SDS011;46196;52.970;6.954;2023-04-03T12:46:19;3.85;;;2.20;;
60352;SDS011;46196;52.970;6.954;2023-04-03T12:48:51;5.00;;;2.45;;
60352;SDS011;46196;52.970;6.954;2023-04-03T12:56:40;6.85;;;2.83;;
60352;SDS011;46196;52.970;6.954;2023-04-03T12:59:15;5.60;;;2.65;;
60352;SDS011;46196;52.970;6.954;2023-04-03T13:01:44;6.43;;;2.60;;
60352;SDS011;46196;52.970;6.954;2023-04-03T13:04:19;6.47;;;2.67;;
60352;SDS011;46196;52.970;6.954;2023-04-03T13:06:45;5.50;;;2.67;;
60352;SDS011;46196;52.970;6.954;2023-04-03T13:09:28;4.32;;;2.40;;
60352;SDS011;46196;52.970;6.954;2023-04-03T13:12:00;4.60;;;2.50;;
60352;SDS011;46196;52.970;6.954;2023-04-03T13:14:28;8.13;;;2.80;;
60352;SDS011;46196;52.970;6.954;2023-04-03T13:16:59;8.30;;;3.22;;
60352;SDS011;46196;52.970;6.954;2023-04-03T13:19:31;5.35;;;2.70;;
60352;SDS011;46196;52.970;6.954;2023-04-03T13:24:48;5.80;;;2.67;;
60352;SDS011;46196;52.970;6.954;2023-04-03T13:27:15;5.53;;;2.78;;
60352;SDS011;46196;52.970;6.954;2023-04-03T13:29:42;5.25;;;2.70;;
60352;SDS011;46196;52.970;6.954;2023-04-03T13:35:23;6.15;;;2.90;;
60352;SDS011;46196;52.970;6.954;2023-04-03T13:38:00;5.68;;;2.65;;
60352;SDS011;46196;52.970;6.954;2023-04-03T13:40:28;7.00;;;2.40;;
60352;SDS011;46196;52.970;6.954;2023-04-03T13:43:05;5.70;;;2.78;;
60352;SDS011;46196;52.970;6.954;2023-04-03T13:45:42;6.75;;;2.88;;
60352;SDS011;46196;52.970;6.954;2023-04-03T13:48:44;5.68;;;2.90;;
60352;SDS011;46196;52.970;6.954;2023-04-03T13:51:17;4.00;;;2.58;;
60352;SDS011;46196;52.970;6.954;2023-04-03T13:53:51;3.95;;;2.53;;
60352;SDS011;46196;52.970;6.954;2023-04-03T13:56:38;7.75;;;3.00;;
60352;SDS011;46196;52.970;6.954;2023-04-03T14:06:46;4.63;;;2.30;;
60352;SDS011;46196;52.970;6.954;2023-04-03T14:09:13;8.02;;;2.70;;
60352;SDS011;46196;52.970;6.954;2023-04-03T14:11:40;4.80;;;2.70;;
60352;SDS011;46196;52.970;6.954;2023-04-03T14:14:20;5.07;;;2.40;;
60352;SDS011;46196;52.970;6.954;2023-04-03T14:16:51;5.57;;;2.42;;
60352;SDS011;46196;52.970;6.954;2023-04-03T14:19:21;6.10;;;2.38;;
60352;SDS011;46196;52.970;6.954;2023-04-03T14:21:50;6.32;;;2.50;;
60352;SDS011;46196;52.970;6.954;2023-04-03T14:24:18;4.43;;;2.67;;
60352;SDS011;46196;52.970;6.954;2023-04-03T14:26:45;4.90;;;2.50;;
60352;SDS011;46196;52.970;6.954;2023-04-03T14:29:12;4.45;;;2.67;;
60352;SDS011;46196;52.970;6.954;2023-04-03T14:31:39;3.95;;;2.30;;
60352;SDS011;46196;52.970;6.954;2023-04-03T14:34:06;5.43;;;2.60;;
60352;SDS011;46196;52.970;6.954;2023-04-03T14:36:32;6.45;;;2.85;;
60352;SDS011;46196;52.970;6.954;2023-04-03T14:38:59;6.32;;;2.63;;
60352;SDS011;46196;52.970;6.954;2023-04-03T14:41:26;4.53;;;2.40;;
60352;SDS011;46196;52.970;6.954;2023-04-03T14:43:52;5.47;;;3.17;;
60352;SDS011;46196;52.970;6.954;2023-04-03T14:46:24;3.67;;;2.60;;
60352;SDS011;46196;52.970;6.954;2023-04-03T14:48:56;7.32;;;2.72;;
60352;SDS011;46196;52.970;6.954;2023-04-03T14:51:22;6.45;;;2.75;;
60352;SDS011;46196;52.970;6.954;2023-04-03T14:53:48;10.90;;;2.72;;
60352;SDS011;46196;52.970;6.954;2023-04-03T14:56:19;8.88;;;2.85;;
60352;SDS011;46196;52.970;6.954;2023-04-03T14:58:49;6.18;;;2.65;;
60352;SDS011;46196;52.970;6.954;2023-04-03T15:01:17;9.52;;;2.70;;
60352;SDS011;46196;52.970;6.954;2023-04-03T15:03:43;5.88;;;2.60;;
60352;SDS011;46196;52.970;6.954;2023-04-03T15:06:10;4.35;;;2.30;;
60352;SDS011;46196;52.970;6.954;2023-04-03T15:08:37;4.88;;;2.50;;
60352;SDS011;46196;52.970;6.954;2023-04-03T15:11:03;6.43;;;2.50;;
60352;SDS011;46196;52.970;6.954;2023-04-03T15:13:30;5.53;;;2.65;;
60352;SDS011;46196;52.970;6.954;2023-04-03T15:15:55;7.53;;;2.67;;
60352;SDS011;46196;52.970;6.954;2023-04-03T15:18:22;5.20;;;2.60;;
60352;SDS011;46196;52.970;6.954;2023-04-03T15:20:51;4.10;;;2.55;;
60352;SDS011;46196;52.970;6.954;2023-04-03T15:23:18;5.28;;;2.80;;
60352;SDS011;46196;52.970;6.954;2023-04-03T15:25:45;5.80;;;2.30;;
60352;SDS011;46196;52.970;6.954;2023-04-03T15:28:22;7.47;;;2.72;;
60352;SDS011;46196;52.970;6.954;2023-04-03T15:30:57;5.53;;;2.65;;
60352;SDS011;46196;52.970;6.954;2023-04-03T15:33:23;8.80;;;2.53;;
60352;SDS011;46196;52.970;6.954;2023-04-03T15:35:49;8.25;;;2.88;;
60352;SDS011;46196;52.970;6.954;2023-04-03T15:38:15;6.95;;;2.70;;
60352;SDS011;46196;52.970;6.954;2023-04-03T15:40:41;4.60;;;2.40;;
60352;SDS011;46196;52.970;6.954;2023-04-03T15:43:09;4.78;;;2.47;;
60352;SDS011;46196;52.970;6.954;2023-04-03T15:45:35;7.10;;;2.50;;
60352;SDS011;46196;52.970;6.954;2023-04-03T15:48:03;6.47;;;2.88;;
60352;SDS011;46196;52.970;6.954;2023-04-03T15:50:33;4.55;;;2.50;;
60352;SDS011;46196;52.970;6.954;2023-04-03T15:53:00;7.72;;;2.88;;
60352;SDS011;46196;52.970;6.954;2023-04-03T15:55:31;6.28;;;3.17;;
60352;SDS011;46196;52.970;6.954;2023-04-03T15:57:59;5.65;;;2.83;;
60352;SDS011;46196;52.970;6.954;2023-04-03T16:00:26;6.47;;;2.95;;
60352;SDS011;46196;52.970;6.954;2023-04-03T16:02:54;4.80;;;2.55;;
60352;SDS011;46196;52.970;6.954;2023-04-03T16:05:23;4.30;;;2.70;;
60352;SDS011;46196;52.970;6.954;2023-04-03T16:07:49;6.78;;;2.60;;
60352;SDS011;46196;52.970;6.954;2023-04-03T16:10:16;6.18;;;2.60;;
60352;SDS011;46196;52.970;6.954;2023-04-03T16:12:43;5.35;;;2.78;;
60352;SDS011;46196;52.970;6.954;2023-04-03T16:15:10;5.03;;;2.45;;
60352;SDS011;46196;52.970;6.954;2023-04-03T16:17:38;5.05;;;2.60;;
60352;SDS011;46196;52.970;6.954;2023-04-03T16:20:09;6.25;;;2.70;;
60352;SDS011;46196;52.970;6.954;2023-04-03T16:22:37;9.32;;;3.00;;
60352;SDS011;46196;52.970;6.954;2023-04-03T16:25:03;9.05;;;3.08;;
60352;SDS011;46196;52.970;6.954;2023-04-03T16:27:31;4.97;;;2.60;;
60352;SDS011;46196;52.970;6.954;2023-04-03T16:29:57;5.70;;;2.88;;
60352;SDS011;46196;52.970;6.954;2023-04-03T16:32:24;8.57;;;3.50;;
60352;SDS011;46196;52.970;6.954;2023-04-03T16:34:52;8.35;;;2.90;;
60352;SDS011;46196;52.970;6.954;2023-04-03T16:37:18;6.05;;;2.63;;
60352;SDS011;46196;52.970;6.954;2023-04-03T16:39:45;9.80;;;4.57;;
60352;SDS011;46196;52.970;6.954;2023-04-03T16:42:11;7.63;;;3.25;;
60352;SDS011;46196;52.970;6.954;2023-04-03T16:44:37;5.28;;;2.90;;